createdAt,value
2017-12-30T00:00:23.770Z,5.57
2017-12-30T00:02:51.179Z,5.50
2017-12-30T00:05:18.589Z,6.65
2017-12-30T00:07:46.768Z,6.55
2017-12-30T00:10:14.945Z,5.72
2017-12-30T00:12:42.360Z,6.28
2017-12-30T00:15:09.766Z,6.18
2017-12-30T00:17:37.294Z,6.43
2017-12-30T00:20:04.748Z,6.93
2017-12-30T00:22:32.187Z,7.20
2017-12-30T00:24:59.692Z,7.10
2017-12-30T00:27:27.102Z,6.80
2017-12-30T00:29:54.505Z,7.35
2017-12-30T00:32:22.685Z,6.97
2017-12-30T00:34:50.909Z,7.85
2017-12-30T00:37:18.381Z,6.68
2017-12-30T00:39:45.789Z,6.87
2017-12-30T00:42:13.199Z,6.20
2017-12-30T00:44:40.664Z,6.60
2017-12-30T00:47:08.146Z,6.40
2017-12-30T00:49:35.619Z,6.82
2017-12-30T00:52:03.802Z,6.40
2017-12-30T00:54:31.225Z,7.90
2017-12-30T00:56:58.639Z,8.13
2017-12-30T00:59:26.061Z,8.60
2017-12-30T01:01:53.467Z,6.87
2017-12-30T01:04:20.945Z,8.10
2017-12-30T01:06:48.364Z,7.70
2017-12-30T01:09:15.770Z,7.90
2017-12-30T01:11:43.236Z,8.13
2017-12-30T01:14:10.830Z,7.28
2017-12-30T01:16:38.399Z,7.82
2017-12-30T01:19:05.861Z,8.65
2017-12-30T01:21:33.261Z,8.35
2017-12-30T01:24:00.678Z,7.72
2017-12-30T01:26:28.082Z,8.40
2017-12-30T01:28:55.501Z,9.10
2017-12-30T01:31:23.672Z,8.02
2017-12-30T01:33:51.197Z,9.20
2017-12-30T01:36:18.604Z,10.50
2017-12-30T01:38:46.028Z,6.75
2017-12-30T01:41:13.439Z,9.18
2017-12-30T01:43:40.849Z,10.80
2017-12-30T01:46:08.270Z,10.38
2017-12-30T01:48:35.679Z,10.15
2017-12-30T01:51:03.107Z,10.65
2017-12-30T01:53:30.530Z,10.50
2017-12-30T01:55:57.949Z,10.32
2017-12-30T01:58:25.377Z,11.30
2017-12-30T02:00:52.794Z,11.25
2017-12-30T02:03:20.985Z,12.13
2017-12-30T02:05:48.481Z,11.12
2017-12-30T02:08:15.969Z,11.82
2017-12-30T02:10:43.389Z,11.55
2017-12-30T02:13:11.573Z,13.07
2017-12-30T02:15:39.011Z,12.00
2017-12-30T02:18:06.430Z,11.75
2017-12-30T02:20:34.597Z,12.75
2017-12-30T02:23:02.818Z,10.90
2017-12-30T02:25:30.253Z,13.20
2017-12-30T02:27:58.465Z,13.00
2017-12-30T02:30:25.938Z,12.70
2017-12-30T02:32:53.363Z,10.90
2017-12-30T02:35:20.769Z,13.70
2017-12-30T02:37:48.276Z,12.73
2017-12-30T02:40:15.693Z,12.90
2017-12-30T02:42:43.886Z,13.25
2017-12-30T02:45:12.066Z,12.48
2017-12-30T02:47:40.377Z,9.93
2017-12-30T02:50:07.793Z,13.52
2017-12-30T02:52:35.309Z,11.68
2017-12-30T02:55:02.733Z,12.43
2017-12-30T02:57:30.151Z,12.82
2017-12-30T02:59:57.577Z,12.75
2017-12-30T03:02:25.784Z,12.20
2017-12-30T03:04:53.973Z,12.68
2017-12-30T03:07:21.449Z,10.77
2017-12-30T03:09:48.939Z,12.00
2017-12-30T03:12:16.364Z,12.27
2017-12-30T03:14:44.596Z,12.43
2017-12-30T03:17:12.065Z,12.60
2017-12-30T03:19:39.478Z,12.98
2017-12-30T03:22:06.886Z,13.73
2017-12-30T03:24:34.309Z,12.48
2017-12-30T03:27:01.825Z,11.73
2017-12-30T03:29:29.289Z,13.02
2017-12-30T03:31:56.705Z,13.55
2017-12-30T03:34:25.662Z,12.77
2017-12-30T03:36:53.071Z,12.63
2017-12-30T03:39:20.610Z,12.32
2017-12-30T03:41:48.033Z,12.35
2017-12-30T03:44:15.534Z,11.55
2017-12-30T03:46:43.018Z,12.43
2017-12-30T03:49:10.436Z,13.13
2017-12-30T03:51:38.662Z,12.63
2017-12-30T03:54:06.142Z,13.15
2017-12-30T03:56:33.564Z,11.32
2017-12-30T03:59:00.993Z,12.23
2017-12-30T04:01:28.435Z,12.05
2017-12-30T04:03:55.913Z,11.60
2017-12-30T04:06:23.388Z,10.38
2017-12-30T04:08:50.853Z,12.57
2017-12-30T04:11:18.265Z,12.23
2017-12-30T04:13:45.782Z,11.80
2017-12-30T04:16:13.227Z,11.50
2017-12-30T04:18:41.450Z,11.63
2017-12-30T04:21:08.857Z,11.27
2017-12-30T04:23:36.373Z,10.30
2017-12-30T04:26:03.793Z,10.85
2017-12-30T04:28:31.200Z,9.30
2017-12-30T04:30:58.626Z,9.75
2017-12-30T04:33:26.050Z,10.80
2017-12-30T04:35:53.516Z,11.30
2017-12-30T04:38:20.928Z,10.30
2017-12-30T04:40:48.458Z,11.25
2017-12-30T04:43:15.918Z,9.65
2017-12-30T04:45:43.335Z,10.27
2017-12-30T04:48:10.756Z,8.10
2017-12-30T04:50:38.177Z,10.18
2017-12-30T04:53:06.377Z,9.80
2017-12-30T04:55:34.563Z,8.88
2017-12-30T04:58:02.809Z,8.77
2017-12-30T05:00:30.249Z,8.70
2017-12-30T05:02:57.674Z,7.20
2017-12-30T05:05:25.300Z,7.45
2017-12-30T05:07:52.724Z,7.70
2017-12-30T05:10:20.923Z,7.22
2017-12-30T05:12:49.135Z,7.85
2017-12-30T05:15:16.599Z,8.45
2017-12-30T05:17:44.026Z,8.75
2017-12-30T05:20:11.443Z,7.20
2017-12-30T05:22:38.871Z,5.20
2017-12-30T05:25:06.404Z,8.50
2017-12-30T05:27:33.831Z,7.23
2017-12-30T05:30:01.241Z,6.60
2017-12-30T05:32:28.644Z,6.45
2017-12-30T05:34:56.875Z,7.35
2017-12-30T05:37:24.301Z,6.90
2017-12-30T05:39:52.517Z,7.33
2017-12-30T05:42:19.929Z,7.00
2017-12-30T05:44:47.362Z,7.97
2017-12-30T05:47:14.838Z,7.00
2017-12-30T05:49:42.257Z,7.20
2017-12-30T05:52:10.439Z,7.40
2017-12-30T05:54:37.861Z,7.95
2017-12-30T05:57:05.317Z,7.95
2017-12-30T05:59:32.774Z,9.18
2017-12-30T06:02:00.181Z,7.15
2017-12-30T06:04:27.601Z,7.25
2017-12-30T06:06:55.807Z,6.82
2017-12-30T06:09:23.217Z,6.35
2017-12-30T06:11:50.637Z,6.57
2017-12-30T06:14:18.133Z,6.95
2017-12-30T06:16:45.538Z,7.32
2017-12-30T06:19:13.765Z,6.30
2017-12-30T06:21:41.177Z,6.65
2017-12-30T06:24:08.693Z,6.28
2017-12-30T06:26:36.104Z,6.82
2017-12-30T06:29:03.534Z,5.32
2017-12-30T06:31:30.949Z,6.25
2017-12-30T06:33:58.366Z,6.28
2017-12-30T06:36:25.861Z,6.53
2017-12-30T06:38:53.273Z,6.25
2017-12-30T06:41:20.685Z,5.82
2017-12-30T06:43:48.156Z,6.45
2017-12-30T06:46:16.321Z,6.30
2017-12-30T06:48:43.737Z,6.68
2017-12-30T06:51:11.282Z,6.72
2017-12-30T06:53:38.680Z,6.28
2017-12-30T06:56:06.115Z,6.80
2017-12-30T06:58:33.517Z,6.87
2017-12-30T07:01:00.951Z,6.30
2017-12-30T07:03:28.356Z,6.60
2017-12-30T07:05:55.799Z,7.30
2017-12-30T07:08:23.201Z,6.28
2017-12-30T07:10:50.721Z,6.82
2017-12-30T07:13:18.132Z,6.18
2017-12-30T07:15:45.554Z,6.05
2017-12-30T07:18:12.967Z,6.10
2017-12-30T07:20:40.502Z,6.03
2017-12-30T07:23:07.889Z,5.87
2017-12-30T07:25:35.309Z,6.20
2017-12-30T07:28:03.507Z,6.30
2017-12-30T07:30:31.103Z,5.10
2017-12-30T07:32:58.504Z,5.47
2017-12-30T07:35:26.684Z,5.22
2017-12-30T07:37:54.110Z,5.40
2017-12-30T07:40:21.579Z,4.72
2017-12-30T07:42:49.155Z,4.90
2017-12-30T07:45:16.581Z,4.05
2017-12-30T07:47:44.767Z,4.20
2017-12-30T07:50:12.954Z,4.35
2017-12-30T07:52:41.134Z,5.05
2017-12-30T07:55:09.453Z,4.30
2017-12-30T07:57:37.884Z,3.70
2017-12-30T08:00:05.291Z,3.70
2017-12-30T08:02:33.465Z,4.22
2017-12-30T08:05:00.901Z,4.20
2017-12-30T08:07:28.304Z,4.12
2017-12-30T08:09:56.524Z,3.40
2017-12-30T08:12:23.939Z,3.83
2017-12-30T08:14:51.375Z,3.87
2017-12-30T08:17:18.787Z,3.40
2017-12-30T08:19:46.204Z,3.97
2017-12-30T08:22:13.629Z,3.45
2017-12-30T08:24:41.078Z,3.65
2017-12-30T08:27:08.516Z,3.40
2017-12-30T08:29:35.925Z,3.55
2017-12-30T08:32:03.333Z,3.20
2017-12-30T08:34:30.803Z,3.80
2017-12-30T08:36:58.277Z,3.40
2017-12-30T08:39:25.709Z,4.20
2017-12-30T08:41:53.934Z,4.40
2017-12-30T08:44:21.420Z,3.40
2017-12-30T08:46:48.821Z,3.65
2017-12-30T08:49:16.249Z,4.32
2017-12-30T08:51:43.707Z,3.97
2017-12-30T08:54:11.184Z,3.70
2017-12-30T08:56:38.665Z,3.70
2017-12-30T08:59:06.092Z,3.33
2017-12-30T09:01:34.269Z,3.20
2017-12-30T09:04:02.453Z,3.75
2017-12-30T09:06:30.681Z,3.90
2017-12-30T09:08:58.087Z,3.17
2017-12-30T09:11:25.605Z,4.25
2017-12-30T09:13:53.026Z,2.22
2017-12-30T09:16:20.561Z,3.40
2017-12-30T09:18:47.981Z,2.05
2017-12-30T09:21:16.189Z,3.00
2017-12-30T09:23:43.602Z,2.67
2017-12-30T09:26:11.042Z,3.22
2017-12-30T09:28:38.517Z,3.28
2017-12-30T09:31:05.913Z,2.33
2017-12-30T09:33:33.339Z,2.85
2017-12-30T09:36:01.579Z,2.60
2017-12-30T09:38:29.025Z,2.70
2017-12-30T09:40:56.461Z,3.72
2017-12-30T09:43:23.935Z,2.95
2017-12-30T09:45:51.430Z,3.30
2017-12-30T09:48:18.891Z,2.62
2017-12-30T09:50:46.373Z,3.28
2017-12-30T09:53:13.813Z,3.20
2017-12-30T09:55:41.233Z,3.08
2017-12-30T09:58:08.661Z,2.83
2017-12-30T10:00:36.102Z,3.25
2017-12-30T10:03:04.356Z,4.68
2017-12-30T10:05:31.873Z,3.47
2017-12-30T10:07:59.286Z,4.45
2017-12-30T10:10:26.726Z,3.78
2017-12-30T10:12:54.293Z,4.20
2017-12-30T10:15:21.724Z,4.25
2017-12-30T10:17:49.889Z,4.60
2017-12-30T10:20:17.401Z,3.97
2017-12-30T10:22:44.844Z,4.55
2017-12-30T10:25:12.347Z,3.50
2017-12-30T10:27:39.757Z,4.53
2017-12-30T10:30:07.177Z,3.75
2017-12-30T10:32:34.658Z,4.82
2017-12-30T10:35:02.078Z,4.85
2017-12-30T10:37:29.493Z,4.20
2017-12-30T10:39:56.909Z,4.12
2017-12-30T10:42:24.325Z,5.25
2017-12-30T10:44:51.801Z,3.35
2017-12-30T10:47:19.249Z,4.12
2017-12-30T10:49:46.676Z,3.60
2017-12-30T10:52:14.193Z,3.05
2017-12-30T10:54:41.648Z,3.00
2017-12-30T10:57:09.127Z,3.12
2017-12-30T10:59:36.525Z,3.90
2017-12-30T11:02:03.962Z,2.83
2017-12-30T11:04:31.377Z,2.97
2017-12-30T11:06:58.797Z,3.15
2017-12-30T11:09:26.205Z,2.58
2017-12-30T11:11:53.706Z,3.15
2017-12-30T11:14:21.107Z,2.53
2017-12-30T11:16:48.525Z,3.10
2017-12-30T11:19:15.968Z,2.90
2017-12-30T11:21:43.377Z,3.15
2017-12-30T11:24:10.798Z,2.37
2017-12-30T11:26:38.235Z,2.87
2017-12-30T11:29:06.423Z,3.20
2017-12-30T11:31:34.605Z,3.17
2017-12-30T11:34:02.789Z,3.35
2017-12-30T11:36:31.032Z,3.75
2017-12-30T11:38:58.441Z,4.35
2017-12-30T11:41:26.683Z,3.50
2017-12-30T11:43:54.112Z,3.60
2017-12-30T11:46:21.554Z,3.10
2017-12-30T11:48:48.951Z,3.30
2017-12-30T11:51:16.360Z,3.00
2017-12-30T11:53:43.785Z,2.30
2017-12-30T11:56:11.368Z,3.37
2017-12-30T11:58:38.761Z,4.28
2017-12-30T12:01:06.192Z,3.17
2017-12-30T12:03:34.382Z,2.80
2017-12-30T12:06:01.801Z,2.42
2017-12-30T12:08:29.224Z,2.40
2017-12-30T12:10:56.647Z,2.50
2017-12-30T12:13:24.153Z,1.90
2017-12-30T12:15:51.653Z,2.45
2017-12-30T12:18:19.126Z,2.30
2017-12-30T12:20:46.579Z,2.10
2017-12-30T12:23:13.993Z,2.30
2017-12-30T12:25:41.522Z,1.45
2017-12-30T12:28:08.927Z,1.87
2017-12-30T12:30:36.338Z,2.15
2017-12-30T12:33:03.789Z,1.37
2017-12-30T12:35:31.219Z,1.50
2017-12-30T12:37:58.614Z,1.40
2017-12-30T12:40:26.784Z,1.40
2017-12-30T12:42:54.200Z,1.55
2017-12-30T12:45:21.632Z,1.10
2017-12-30T12:47:49.169Z,1.17
2017-12-30T12:50:16.593Z,0.90
2017-12-30T12:52:44.037Z,1.08
2017-12-30T12:55:12.226Z,1.45
2017-12-30T12:57:40.442Z,1.08
2017-12-30T13:00:07.841Z,1.30
2017-12-30T13:02:35.285Z,1.10
2017-12-30T13:05:03.164Z,1.48
2017-12-30T13:07:31.401Z,1.20
2017-12-30T13:09:58.808Z,1.60
2017-12-30T13:12:26.245Z,1.00
2017-12-30T13:14:53.633Z,0.93
2017-12-30T13:17:21.058Z,1.08
2017-12-30T13:19:48.568Z,1.48
2017-12-30T13:22:15.965Z,1.40
2017-12-30T13:24:43.428Z,1.70
2017-12-30T13:27:11.606Z,1.63
2017-12-30T13:29:39.013Z,1.30
2017-12-30T13:32:06.421Z,3.10
2017-12-30T13:34:34.601Z,2.03
2017-12-30T13:37:02.788Z,1.20
2017-12-30T13:39:30.297Z,1.43
2017-12-30T13:41:57.685Z,1.63
2017-12-30T13:44:25.108Z,1.53
2017-12-30T13:46:52.513Z,1.47
2017-12-30T13:49:19.946Z,1.70
2017-12-30T13:51:48.142Z,1.97
2017-12-30T13:54:15.549Z,1.93
2017-12-30T13:56:42.953Z,1.90
2017-12-30T13:59:11.125Z,2.20
2017-12-30T14:01:38.526Z,3.03
2017-12-30T14:04:06.023Z,2.50
2017-12-30T14:06:33.457Z,1.70
2017-12-30T14:09:00.877Z,1.83
2017-12-30T14:11:28.294Z,1.30
2017-12-30T14:13:55.779Z,1.80
2017-12-30T14:16:23.245Z,2.60
2017-12-30T14:18:50.657Z,2.47
2017-12-30T14:21:18.073Z,2.30
2017-12-30T14:23:45.500Z,2.97
2017-12-30T14:26:14.408Z,2.73
2017-12-30T14:28:42.581Z,2.80
2017-12-30T14:31:11.497Z,2.60
2017-12-30T14:33:39.006Z,2.93
2017-12-30T14:36:06.417Z,3.57
2017-12-30T14:38:33.830Z,3.83
2017-12-30T14:41:01.993Z,3.60
2017-12-30T14:43:31.022Z,4.10
2017-12-30T14:45:58.514Z,4.10
2017-12-30T14:48:25.932Z,3.80
2017-12-30T14:50:53.401Z,4.30
2017-12-30T14:53:20.910Z,4.60
2017-12-30T14:55:48.373Z,4.40
2017-12-30T14:58:15.798Z,5.40
2017-12-30T15:00:43.205Z,5.20
2017-12-30T15:03:10.674Z,7.23
2017-12-30T15:05:38.081Z,6.20
2017-12-30T15:08:05.518Z,6.63
2017-12-30T15:10:32.990Z,7.20
2017-12-30T15:13:00.403Z,6.90
2017-12-30T15:15:27.826Z,8.00
2017-12-30T15:17:55.245Z,12.83
2017-12-30T15:20:23.489Z,15.87
2017-12-30T15:22:52.484Z,18.00
2017-12-30T15:25:20.981Z,22.37
2017-12-30T15:27:48.390Z,16.60
2017-12-30T15:30:15.814Z,16.40
2017-12-30T15:32:43.217Z,15.87
2017-12-30T15:35:10.756Z,15.20
2017-12-30T15:37:38.914Z,13.30
2017-12-30T15:40:07.168Z,12.07
2017-12-30T15:42:34.538Z,11.60
2017-12-30T15:45:01.954Z,11.93
2017-12-30T15:47:29.375Z,9.97
2017-12-30T15:49:56.900Z,10.03
2017-12-30T15:52:24.390Z,9.40
2017-12-30T15:54:51.809Z,8.70
2017-12-30T15:57:20.020Z,8.40
2017-12-30T15:59:47.480Z,8.37
2017-12-30T16:02:14.901Z,8.47
2017-12-30T16:04:42.326Z,8.63
2017-12-30T16:07:09.761Z,8.10
2017-12-30T16:09:37.981Z,6.30
2017-12-30T16:12:05.446Z,8.50
2017-12-30T16:14:32.923Z,8.17
2017-12-30T16:17:00.394Z,7.27
2017-12-30T16:19:28.558Z,8.00
2017-12-30T16:21:56.004Z,7.77
2017-12-30T16:24:23.401Z,7.83
2017-12-30T16:26:50.803Z,7.13
2017-12-30T16:29:18.237Z,6.50
2017-12-30T16:31:45.753Z,7.53
2017-12-30T16:34:13.184Z,7.50
2017-12-30T16:36:40.665Z,6.77
2017-12-30T16:39:08.057Z,7.20
2017-12-30T16:41:35.497Z,7.10
2017-12-30T16:44:02.926Z,7.17
2017-12-30T16:46:31.112Z,7.20
2017-12-30T16:48:59.293Z,7.50
2017-12-30T16:51:27.473Z,8.57
2017-12-30T16:53:54.885Z,7.73
2017-12-30T16:56:23.664Z,8.03
2017-12-30T16:58:51.087Z,6.23
2017-12-30T17:01:18.513Z,6.70
2017-12-30T17:03:46.697Z,6.60
2017-12-30T17:06:14.116Z,7.60
2017-12-30T17:08:41.550Z,6.93
2017-12-30T17:11:08.965Z,8.20
2017-12-30T17:13:36.684Z,6.60
2017-12-30T17:16:04.908Z,6.53
2017-12-30T17:18:32.350Z,8.43
2017-12-30T17:20:59.761Z,7.40
2017-12-30T17:23:27.182Z,7.13
2017-12-30T17:25:54.761Z,7.60
2017-12-30T17:28:22.181Z,7.00
2017-12-30T17:30:50.393Z,7.00
2017-12-30T17:33:17.812Z,6.97
2017-12-30T17:35:45.225Z,7.10
2017-12-30T17:38:12.643Z,8.33
2017-12-30T17:40:40.173Z,8.43
2017-12-30T17:43:07.585Z,6.13
2017-12-30T17:45:35.271Z,6.87
2017-12-30T17:48:02.789Z,6.47
2017-12-30T17:50:30.207Z,6.30
2017-12-30T17:52:57.645Z,5.70
2017-12-30T17:55:26.045Z,5.40
2017-12-30T17:57:53.458Z,6.03
2017-12-30T18:00:21.661Z,7.63
2017-12-30T18:02:49.156Z,6.33
2017-12-30T18:05:16.614Z,6.07
2017-12-30T18:07:44.565Z,6.60
2017-12-30T18:10:12.761Z,6.17
2017-12-30T18:12:40.251Z,5.60
2017-12-30T18:15:07.710Z,4.20
2017-12-30T18:17:35.999Z,5.33
2017-12-30T18:20:04.173Z,3.60
2017-12-30T18:22:31.654Z,4.47
2017-12-30T18:24:59.119Z,3.33
2017-12-30T18:27:26.532Z,3.90
2017-12-30T18:29:54.076Z,3.30
2017-12-30T18:32:21.494Z,3.43
2017-12-30T18:34:50.400Z,4.60
2017-12-30T18:37:18.579Z,3.37
2017-12-30T18:39:46.807Z,4.00
2017-12-30T18:42:14.205Z,3.97
2017-12-30T18:44:41.733Z,4.50
2017-12-30T18:47:09.139Z,4.20
2017-12-30T18:49:36.558Z,4.30
2017-12-30T18:52:04.774Z,5.07
2017-12-30T18:54:32.917Z,4.93
2017-12-30T18:57:01.086Z,4.77
2017-12-30T18:59:28.497Z,5.90
2017-12-30T19:01:55.923Z,6.03
2017-12-30T19:04:23.389Z,6.90
2017-12-30T19:06:50.818Z,6.60
2017-12-30T19:09:18.218Z,7.10
2017-12-30T19:11:45.620Z,6.87
2017-12-30T19:14:13.822Z,6.50
2017-12-30T19:16:41.261Z,6.07
2017-12-30T19:19:08.654Z,7.40
2017-12-30T19:21:36.085Z,7.23
2017-12-30T19:24:03.489Z,7.73
2017-12-30T19:26:30.957Z,8.27
2017-12-30T19:28:58.367Z,7.50
2017-12-30T19:31:25.832Z,7.70
2017-12-30T19:33:53.254Z,6.90
2017-12-30T19:36:21.446Z,6.67
2017-12-30T19:38:48.870Z,6.60
2017-12-30T19:41:16.318Z,9.20
2017-12-30T19:43:43.757Z,6.93
2017-12-30T19:46:11.165Z,6.40
2017-12-30T19:48:38.580Z,6.47
2017-12-30T19:51:06.063Z,7.00
2017-12-30T19:53:33.471Z,6.40
2017-12-30T19:56:00.898Z,6.50
2017-12-30T19:58:28.335Z,6.07
2017-12-30T20:00:55.849Z,7.07
2017-12-30T20:03:23.272Z,6.40
2017-12-30T20:05:50.704Z,5.63
2017-12-30T20:08:18.147Z,7.20
2017-12-30T20:10:46.336Z,6.67
2017-12-30T20:13:13.747Z,7.80
2017-12-30T20:15:41.169Z,6.33
2017-12-30T20:18:08.584Z,7.17
2017-12-30T20:20:35.993Z,6.57
2017-12-30T20:23:03.473Z,6.87
2017-12-30T20:25:31.645Z,6.07
2017-12-30T20:27:59.058Z,7.17
2017-12-30T20:30:26.506Z,6.40
2017-12-30T20:32:53.917Z,7.30
2017-12-30T20:35:21.450Z,6.43
2017-12-30T20:37:48.869Z,7.90
2017-12-30T20:40:17.088Z,7.63
2017-12-30T20:42:45.237Z,7.57
2017-12-30T20:45:13.421Z,6.83
2017-12-30T20:47:41.646Z,6.23
2017-12-30T20:50:09.042Z,6.30
2017-12-30T20:52:36.465Z,6.43
2017-12-30T20:55:03.878Z,6.17
2017-12-30T20:57:31.418Z,5.37
2017-12-30T20:59:59.581Z,5.47
2017-12-30T21:02:27.762Z,6.33
2017-12-30T21:04:56.030Z,5.40
2017-12-30T21:07:23.646Z,5.63
2017-12-30T21:09:51.149Z,5.80
2017-12-30T21:12:18.569Z,5.07
2017-12-30T21:14:46.094Z,5.47
2017-12-30T21:17:14.304Z,6.20
2017-12-30T21:19:42.482Z,5.73
2017-12-30T21:22:10.654Z,5.40
2017-12-30T21:24:38.269Z,6.37
2017-12-30T21:27:06.439Z,5.53
2017-12-30T21:29:34.613Z,5.30
2017-12-30T21:32:02.791Z,7.50
2017-12-30T21:34:30.977Z,5.23
2017-12-30T21:36:59.152Z,6.57
2017-12-30T21:39:26.589Z,11.27
2017-12-30T21:41:54.009Z,6.27
2017-12-30T21:44:22.239Z,4.40
2017-12-30T21:46:49.693Z,4.40
2017-12-30T21:49:17.121Z,8.17
2017-12-30T21:51:44.532Z,3.30
2017-12-30T21:54:11.995Z,4.17
2017-12-30T21:56:39.491Z,3.50
2017-12-30T21:59:06.927Z,3.70
2017-12-30T22:01:34.329Z,4.07
2017-12-30T22:04:01.738Z,4.30
2017-12-30T22:06:29.953Z,6.20
2017-12-30T22:08:57.378Z,4.97
2017-12-30T22:11:24.776Z,5.43
2017-12-30T22:13:52.958Z,5.17
2017-12-30T22:16:21.145Z,5.37
2017-12-30T22:18:49.360Z,5.73
2017-12-30T22:21:16.769Z,5.60
2017-12-30T22:23:44.181Z,5.20
2017-12-30T22:26:12.394Z,5.50
2017-12-30T22:28:39.848Z,14.90
2017-12-30T22:31:07.276Z,6.60
2017-12-30T22:33:34.694Z,7.93
2017-12-30T22:36:02.105Z,6.50
2017-12-30T22:38:29.524Z,8.10
2017-12-30T22:40:56.941Z,6.63
2017-12-30T22:43:24.473Z,6.70
2017-12-30T22:45:51.933Z,6.93
2017-12-30T22:48:19.401Z,5.43
2017-12-30T22:50:46.887Z,6.43
2017-12-30T22:53:14.366Z,6.27
2017-12-30T22:55:41.902Z,6.13
2017-12-30T22:58:10.057Z,5.80
2017-12-30T23:03:36.273Z,6.43
2017-12-30T23:06:04.445Z,6.73
2017-12-30T23:08:31.849Z,6.10
2017-12-30T23:10:59.263Z,6.30
2017-12-30T23:13:26.673Z,5.97
2017-12-30T23:15:54.849Z,5.60
2017-12-30T23:18:23.066Z,6.60
2017-12-30T23:20:50.525Z,5.90
2017-12-30T23:23:18.017Z,6.60
2017-12-30T23:25:45.488Z,7.03
2017-12-30T23:28:12.939Z,6.73
2017-12-30T23:30:40.580Z,6.10
2017-12-30T23:33:08.097Z,5.53
2017-12-30T23:35:35.539Z,5.37
2017-12-30T23:38:03.013Z,5.30
2017-12-30T23:40:31.211Z,6.40
2017-12-30T23:42:58.671Z,5.30
2017-12-30T23:45:27.007Z,5.20
2017-12-30T23:47:54.441Z,6.30
2017-12-30T23:50:21.854Z,5.30
2017-12-30T23:52:50.192Z,4.83
2017-12-30T23:55:17.664Z,4.20
2017-12-30T23:57:45.064Z,4.90
